sensor_id;sensor_type;location;lat;lon;timestamp;pressure;altitude;pressure_sealevel;temperature
11424;BMP180;5768;51.476;7.210;2023-04-03T00:04:53;101517.00;;;5.80
11424;BMP180;5768;51.476;7.210;2023-04-03T00:09:59;101538.00;;;5.80
11424;BMP180;5768;51.476;7.210;2023-04-03T00:15:02;101527.00;;;5.80
11424;BMP180;5768;51.476;7.210;2023-04-03T00:20:07;101531.00;;;5.70
11424;BMP180;5768;51.476;7.210;2023-04-03T00:25:10;101527.00;;;5.70
11424;BMP180;5768;51.476;7.210;2023-04-03T00:30:16;101538.00;;;5.60
11424;BMP180;5768;51.476;7.210;2023-04-03T00:35:21;101526.00;;;5.60
11424;BMP180;5768;51.476;7.210;2023-04-03T00:40:25;101535.00;;;5.60
11424;BMP180;5768;51.476;7.210;2023-04-03T00:45:34;101528.00;;;5.60
11424;BMP180;5768;51.476;7.210;2023-04-03T00:50:41;101535.00;;;5.60
11424;BMP180;5768;51.476;7.210;2023-04-03T00:55:46;101529.00;;;5.70
11424;BMP180;5768;51.476;7.210;2023-04-03T01:00:55;101530.00;;;5.80
11424;BMP180;5768;51.476;7.210;2023-04-03T01:06:00;101541.00;;;5.80
11424;BMP180;5768;51.476;7.210;2023-04-03T01:11:03;101532.00;;;5.90
11424;BMP180;5768;51.476;7.210;2023-04-03T01:16:09;101541.00;;;6.00
11424;BMP180;5768;51.476;7.210;2023-04-03T01:27:10;101548.00;;;6.00
11424;BMP180;5768;51.476;7.210;2023-04-03T01:32:14;101550.00;;;6.00
11424;BMP180;5768;51.476;7.210;2023-04-03T01:37:16;101546.00;;;6.00
11424;BMP180;5768;51.476;7.210;2023-04-03T01:42:19;101547.00;;;6.00
11424;BMP180;5768;51.476;7.210;2023-04-03T01:47:23;101552.00;;;6.00
11424;BMP180;5768;51.476;7.210;2023-04-03T01:52:26;101548.00;;;6.00
11424;BMP180;5768;51.476;7.210;2023-04-03T01:57:28;101543.00;;;5.90
11424;BMP180;5768;51.476;7.210;2023-04-03T02:02:32;101547.00;;;5.80
11424;BMP180;5768;51.476;7.210;2023-04-03T02:07:36;101560.00;;;5.80
11424;BMP180;5768;51.476;7.210;2023-04-03T02:12:38;101559.00;;;5.70
11424;BMP180;5768;51.476;7.210;2023-04-03T02:17:42;101554.00;;;5.70
11424;BMP180;5768;51.476;7.210;2023-04-03T02:22:44;101565.00;;;5.70
11424;BMP180;5768;51.476;7.210;2023-04-03T02:27:50;101563.00;;;5.60
11424;BMP180;5768;51.476;7.210;2023-04-03T02:32:53;101575.00;;;5.70
11424;BMP180;5768;51.476;7.210;2023-04-03T02:37:56;101565.00;;;5.60
11424;BMP180;5768;51.476;7.210;2023-04-03T02:42:58;101575.00;;;5.60
11424;BMP180;5768;51.476;7.210;2023-04-03T02:48:02;101572.00;;;5.60
11424;BMP180;5768;51.476;7.210;2023-04-03T02:53:05;101577.00;;;5.60
11424;BMP180;5768;51.476;7.210;2023-04-03T02:58:07;101577.00;;;5.60
11424;BMP180;5768;51.476;7.210;2023-04-03T03:03:11;101582.00;;;5.60
11424;BMP180;5768;51.476;7.210;2023-04-03T03:08:14;101567.00;;;5.60
11424;BMP180;5768;51.476;7.210;2023-04-03T03:13:16;101587.00;;;5.50
11424;BMP180;5768;51.476;7.210;2023-04-03T03:18:20;101581.00;;;5.50
11424;BMP180;5768;51.476;7.210;2023-04-03T03:23:25;101585.00;;;5.50
11424;BMP180;5768;51.476;7.210;2023-04-03T03:28:28;101590.00;;;5.50
11424;BMP180;5768;51.476;7.210;2023-04-03T03:33:32;101577.00;;;5.50
11424;BMP180;5768;51.476;7.210;2023-04-03T03:38:34;101583.00;;;5.50
11424;BMP180;5768;51.476;7.210;2023-04-03T03:43:36;101578.00;;;5.40
11424;BMP180;5768;51.476;7.210;2023-04-03T03:48:40;101580.00;;;5.40
11424;BMP180;5768;51.476;7.210;2023-04-03T03:53:42;101568.00;;;5.30
11424;BMP180;5768;51.476;7.210;2023-04-03T03:58:44;101584.00;;;5.30
11424;BMP180;5768;51.476;7.210;2023-04-03T04:03:48;101589.00;;;5.20
11424;BMP180;5768;51.476;7.210;2023-04-03T04:08:51;101591.00;;;5.20
11424;BMP180;5768;51.476;7.210;2023-04-03T04:13:53;101591.00;;;5.20
11424;BMP180;5768;51.476;7.210;2023-04-03T04:18:56;101588.00;;;5.10
11424;BMP180;5768;51.476;7.210;2023-04-03T04:23:59;101596.00;;;5.10
11424;BMP180;5768;51.476;7.210;2023-04-03T04:29:01;101598.00;;;5.10
11424;BMP180;5768;51.476;7.210;2023-04-03T04:34:04;101599.00;;;5.10
11424;BMP180;5768;51.476;7.210;2023-04-03T04:39:07;101607.00;;;5.00
11424;BMP180;5768;51.476;7.210;2023-04-03T04:44:09;101609.00;;;5.10
11424;BMP180;5768;51.476;7.210;2023-04-03T04:49:13;101616.00;;;5.00
11424;BMP180;5768;51.476;7.210;2023-04-03T04:54:15;101625.00;;;5.00
11424;BMP180;5768;51.476;7.210;2023-04-03T04:59:18;101623.00;;;5.00
11424;BMP180;5768;51.476;7.210;2023-04-03T05:04:22;101628.00;;;5.00
11424;BMP180;5768;51.476;7.210;2023-04-03T05:09:24;101630.00;;;5.00
11424;BMP180;5768;51.476;7.210;2023-04-03T05:14:26;101644.00;;;5.00
11424;BMP180;5768;51.476;7.210;2023-04-03T05:19:30;101646.00;;;5.00
11424;BMP180;5768;51.476;7.210;2023-04-03T05:24:32;101645.00;;;5.00
11424;BMP180;5768;51.476;7.210;2023-04-03T05:29:34;101665.00;;;5.00
11424;BMP180;5768;51.476;7.210;2023-04-03T05:34:38;101670.00;;;5.10
11424;BMP180;5768;51.476;7.210;2023-04-03T05:39:40;101665.00;;;5.10
11424;BMP180;5768;51.476;7.210;2023-04-03T05:44:42;101668.00;;;5.20
11424;BMP180;5768;51.476;7.210;2023-04-03T05:49:48;101691.00;;;5.20
11424;BMP180;5768;51.476;7.210;2023-04-03T05:54:50;101689.00;;;5.30
11424;BMP180;5768;51.476;7.210;2023-04-03T05:59:52;101685.00;;;5.40
11424;BMP180;5768;51.476;7.210;2023-04-03T06:04:56;101700.00;;;5.40
11424;BMP180;5768;51.476;7.210;2023-04-03T06:09:58;101701.00;;;5.50
11424;BMP180;5768;51.476;7.210;2023-04-03T06:15:01;101700.00;;;5.60
11424;BMP180;5768;51.476;7.210;2023-04-03T06:20:06;101707.00;;;5.60
11424;BMP180;5768;51.476;7.210;2023-04-03T06:25:08;101709.00;;;5.70
11424;BMP180;5768;51.476;7.210;2023-04-03T06:30:12;101697.00;;;5.80
11424;BMP180;5768;51.476;7.210;2023-04-03T06:35:16;101692.00;;;5.90
11424;BMP180;5768;51.476;7.210;2023-04-03T06:40:22;101696.00;;;6.00
11424;BMP180;5768;51.476;7.210;2023-04-03T06:45:24;101702.00;;;6.00
11424;BMP180;5768;51.476;7.210;2023-04-03T06:50:28;101690.00;;;6.10
11424;BMP180;5768;51.476;7.210;2023-04-03T06:55:31;101703.00;;;6.20
11424;BMP180;5768;51.476;7.210;2023-04-03T07:00:33;101714.00;;;6.30
11424;BMP180;5768;51.476;7.210;2023-04-03T07:05:37;101716.00;;;6.40
11424;BMP180;5768;51.476;7.210;2023-04-03T07:10:40;101728.00;;;6.60
11424;BMP180;5768;51.476;7.210;2023-04-03T07:15:42;101736.00;;;6.70
11424;BMP180;5768;51.476;7.210;2023-04-03T07:20:46;101736.00;;;6.80
11424;BMP180;5768;51.476;7.210;2023-04-03T07:25:51;101748.00;;;6.90
11424;BMP180;5768;51.476;7.210;2023-04-03T07:31:01;101743.00;;;7.10
11424;BMP180;5768;51.476;7.210;2023-04-03T07:36:06;101745.00;;;7.20
11424;BMP180;5768;51.476;7.210;2023-04-03T07:41:12;101759.00;;;7.30
11424;BMP180;5768;51.476;7.210;2023-04-03T07:46:16;101757.00;;;7.40
11424;BMP180;5768;51.476;7.210;2023-04-03T07:51:20;101746.00;;;7.50
11424;BMP180;5768;51.476;7.210;2023-04-03T07:56:23;101751.00;;;7.70
11424;BMP180;5768;51.476;7.210;2023-04-03T08:01:25;101765.00;;;7.90
11424;BMP180;5768;51.476;7.210;2023-04-03T08:06:31;101769.00;;;8.00
11424;BMP180;5768;51.476;7.210;2023-04-03T08:11:38;101765.00;;;8.10
11424;BMP180;5768;51.476;7.210;2023-04-03T08:16:40;101764.00;;;8.30
11424;BMP180;5768;51.476;7.210;2023-04-03T08:21:44;101762.00;;;8.40
11424;BMP180;5768;51.476;7.210;2023-04-03T08:26:47;101763.00;;;8.50
11424;BMP180;5768;51.476;7.210;2023-04-03T08:31:50;101755.00;;;8.60
11424;BMP180;5768;51.476;7.210;2023-04-03T08:36:53;101762.00;;;8.60
11424;BMP180;5768;51.476;7.210;2023-04-03T08:42:00;101770.00;;;8.80
11424;BMP180;5768;51.476;7.210;2023-04-03T08:47:20;101771.00;;;8.90
11424;BMP180;5768;51.476;7.210;2023-04-03T08:52:37;101778.00;;;9.00
11424;BMP180;5768;51.476;7.210;2023-04-03T08:57:44;101778.00;;;9.10
11424;BMP180;5768;51.476;7.210;2023-04-03T09:02:49;101779.00;;;9.20
11424;BMP180;5768;51.476;7.210;2023-04-03T09:08:00;101772.00;;;9.30
11424;BMP180;5768;51.476;7.210;2023-04-03T09:13:11;101781.00;;;9.40
11424;BMP180;5768;51.476;7.210;2023-04-03T09:18:21;101770.00;;;9.50
11424;BMP180;5768;51.476;7.210;2023-04-03T09:23:34;101778.00;;;9.50
11424;BMP180;5768;51.476;7.210;2023-04-03T09:28:40;101774.00;;;9.60
11424;BMP180;5768;51.476;7.210;2023-04-03T09:33:43;101776.00;;;9.70
11424;BMP180;5768;51.476;7.210;2023-04-03T09:39:03;101783.00;;;9.80
11424;BMP180;5768;51.476;7.210;2023-04-03T09:44:22;101779.00;;;9.90
11424;BMP180;5768;51.476;7.210;2023-04-03T09:49:26;101775.00;;;10.00
11424;BMP180;5768;51.476;7.210;2023-04-03T09:54:36;101756.00;;;10.00
11424;BMP180;5768;51.476;7.210;2023-04-03T09:59:47;101760.00;;;10.20
11424;BMP180;5768;51.476;7.210;2023-04-03T10:04:58;101760.00;;;10.20
11424;BMP180;5768;51.476;7.210;2023-04-03T10:10:17;101766.00;;;10.30
11424;BMP180;5768;51.476;7.210;2023-04-03T10:15:20;101761.00;;;10.40
11424;BMP180;5768;51.476;7.210;2023-04-03T10:20:33;101764.00;;;10.50
11424;BMP180;5768;51.476;7.210;2023-04-03T10:25:43;101761.00;;;10.60
11424;BMP180;5768;51.476;7.210;2023-04-03T10:30:58;101754.00;;;10.70
11424;BMP180;5768;51.476;7.210;2023-04-03T10:36:18;101751.00;;;10.70
11424;BMP180;5768;51.476;7.210;2023-04-03T10:41:37;101762.00;;;10.80
11424;BMP180;5768;51.476;7.210;2023-04-03T10:46:46;101748.00;;;10.90
11424;BMP180;5768;51.476;7.210;2023-04-03T10:52:00;101747.00;;;11.00
11424;BMP180;5768;51.476;7.210;2023-04-03T10:57:10;101752.00;;;11.00
11424;BMP180;5768;51.476;7.210;2023-04-03T11:02:23;101743.00;;;11.20
11424;BMP180;5768;51.476;7.210;2023-04-03T11:07:28;101739.00;;;11.20
11424;BMP180;5768;51.476;7.210;2023-04-03T11:12:41;101741.00;;;11.30
11424;BMP180;5768;51.476;7.210;2023-04-03T11:17:50;101718.00;;;11.40
11424;BMP180;5768;51.476;7.210;2023-04-03T11:23:01;101716.00;;;11.40
11424;BMP180;5768;51.476;7.210;2023-04-03T11:28:12;101714.00;;;11.50
11424;BMP180;5768;51.476;7.210;2023-04-03T11:33:31;101715.00;;;11.50
11424;BMP180;5768;51.476;7.210;2023-04-03T11:38:38;101705.00;;;11.60
11424;BMP180;5768;51.476;7.210;2023-04-03T11:43:58;101698.00;;;11.80
11424;BMP180;5768;51.476;7.210;2023-04-03T11:49:01;101705.00;;;12.10
11424;BMP180;5768;51.476;7.210;2023-04-03T11:54:45;101700.00;;;12.40
11424;BMP180;5768;51.476;7.210;2023-04-03T11:59:49;101692.00;;;12.60
11424;BMP180;5768;51.476;7.210;2023-04-03T12:05:26;101691.00;;;13.00
11424;BMP180;5768;51.476;7.210;2023-04-03T12:10:29;101706.00;;;13.30
11424;BMP180;5768;51.476;7.210;2023-04-03T12:15:54;101689.00;;;13.50
11424;BMP180;5768;51.476;7.210;2023-04-03T12:20:58;101693.00;;;13.90
11424;BMP180;5768;51.476;7.210;2023-04-03T12:26:19;101685.00;;;14.30
11424;BMP180;5768;51.476;7.210;2023-04-03T12:31:37;101678.00;;;14.70
11424;BMP180;5768;51.476;7.210;2023-04-03T12:36:57;101683.00;;;15.30
11424;BMP180;5768;51.476;7.210;2023-04-03T12:42:21;101691.00;;;16.00
11424;BMP180;5768;51.476;7.210;2023-04-03T12:47:31;101669.00;;;16.90
11424;BMP180;5768;51.476;7.210;2023-04-03T12:52:41;101657.00;;;18.00
11424;BMP180;5768;51.476;7.210;2023-04-03T12:57:46;101674.00;;;18.70
11424;BMP180;5768;51.476;7.210;2023-04-03T13:02:50;101671.00;;;19.80
11424;BMP180;5768;51.476;7.210;2023-04-03T13:07:59;101651.00;;;20.80
11424;BMP180;5768;51.476;7.210;2023-04-03T13:13:09;101665.00;;;21.80
11424;BMP180;5768;51.476;7.210;2023-04-03T13:18:29;101661.00;;;22.50
11424;BMP180;5768;51.476;7.210;2023-04-03T13:23:35;101672.00;;;23.30
11424;BMP180;5768;51.476;7.210;2023-04-03T13:28:40;101664.00;;;24.30
11424;BMP180;5768;51.476;7.210;2023-04-03T13:33:57;101666.00;;;25.10
11424;BMP180;5768;51.476;7.210;2023-04-03T13:39:21;101653.00;;;25.90
11424;BMP180;5768;51.476;7.210;2023-04-03T13:44:32;101655.00;;;26.30
11424;BMP180;5768;51.476;7.210;2023-04-03T13:49:40;101648.00;;;27.30
11424;BMP180;5768;51.476;7.210;2023-04-03T13:54:47;101658.00;;;27.80
11424;BMP180;5768;51.476;7.210;2023-04-03T13:59:53;101659.00;;;28.30
11424;BMP180;5768;51.476;7.210;2023-04-03T14:05:00;101662.00;;;29.10
11424;BMP180;5768;51.476;7.210;2023-04-03T14:10:06;101655.00;;;29.90
11424;BMP180;5768;51.476;7.210;2023-04-03T14:15:18;101647.00;;;30.80
11424;BMP180;5768;51.476;7.210;2023-04-03T14:20:25;101647.00;;;31.10
11424;BMP180;5768;51.476;7.210;2023-04-03T14:25:28;101646.00;;;31.50
11424;BMP180;5768;51.476;7.210;2023-04-03T14:30:33;101640.00;;;32.10
11424;BMP180;5768;51.476;7.210;2023-04-03T14:35:38;101635.00;;;32.70
11424;BMP180;5768;51.476;7.210;2023-04-03T14:40:41;101644.00;;;33.00
11424;BMP180;5768;51.476;7.210;2023-04-03T14:45:43;101654.00;;;33.90
11424;BMP180;5768;51.476;7.210;2023-04-03T14:50:47;101636.00;;;34.40
11424;BMP180;5768;51.476;7.210;2023-04-03T14:55:51;101623.00;;;34.80
11424;BMP180;5768;51.476;7.210;2023-04-03T15:01:03;101617.00;;;34.90
11424;BMP180;5768;51.476;7.210;2023-04-03T15:06:09;101628.00;;;35.20
11424;BMP180;5768;51.476;7.210;2023-04-03T15:11:14;101618.00;;;35.60
11424;BMP180;5768;51.476;7.210;2023-04-03T15:16:19;101617.00;;;36.40
11424;BMP180;5768;51.476;7.210;2023-04-03T15:21:23;101608.00;;;36.50
11424;BMP180;5768;51.476;7.210;2023-04-03T15:26:25;101619.00;;;36.70
11424;BMP180;5768;51.476;7.210;2023-04-03T15:31:30;101626.00;;;36.60
11424;BMP180;5768;51.476;7.210;2023-04-03T15:36:34;101624.00;;;36.60
11424;BMP180;5768;51.476;7.210;2023-04-03T15:41:36;101624.00;;;37.10
11424;BMP180;5768;51.476;7.210;2023-04-03T15:46:39;101628.00;;;37.50
11424;BMP180;5768;51.476;7.210;2023-04-03T15:51:43;101630.00;;;37.30
11424;BMP180;5768;51.476;7.210;2023-04-03T15:56:46;101646.00;;;37.60
11424;BMP180;5768;51.476;7.210;2023-04-03T16:01:48;101644.00;;;37.20
11424;BMP180;5768;51.476;7.210;2023-04-03T16:06:53;101643.00;;;36.70
11424;BMP180;5768;51.476;7.210;2023-04-03T16:11:55;101651.00;;;36.70
11424;BMP180;5768;51.476;7.210;2023-04-03T16:16:58;101637.00;;;36.70
11424;BMP180;5768;51.476;7.210;2023-04-03T16:22:05;101642.00;;;37.10
11424;BMP180;5768;51.476;7.210;2023-04-03T16:27:09;101641.00;;;36.80
11424;BMP180;5768;51.476;7.210;2023-04-03T16:32:12;101636.00;;;36.50
11424;BMP180;5768;51.476;7.210;2023-04-03T16:37:16;101633.00;;;36.10
11424;BMP180;5768;51.476;7.210;2023-04-03T16:42:18;101646.00;;;35.90
11424;BMP180;5768;51.476;7.210;2023-04-03T16:47:21;101640.00;;;35.50
11424;BMP180;5768;51.476;7.210;2023-04-03T16:52:24;101647.00;;;35.10
11424;BMP180;5768;51.476;7.210;2023-04-03T16:57:27;101648.00;;;32.60
11424;BMP180;5768;51.476;7.210;2023-04-03T17:02:29;101638.00;;;29.30
11424;BMP180;5768;51.476;7.210;2023-04-03T17:07:34;101632.00;;;25.90
11424;BMP180;5768;51.476;7.210;2023-04-03T17:12:36;101632.00;;;24.30
11424;BMP180;5768;51.476;7.210;2023-04-03T17:17:38;101634.00;;;23.50
11424;BMP180;5768;51.476;7.210;2023-04-03T17:22:42;101632.00;;;21.90
11424;BMP180;5768;51.476;7.210;2023-04-03T17:27:45;101627.00;;;21.30
11424;BMP180;5768;51.476;7.210;2023-04-03T17:32:47;101617.00;;;20.00
11424;BMP180;5768;51.476;7.210;2023-04-03T17:37:50;101618.00;;;18.80
11424;BMP180;5768;51.476;7.210;2023-04-03T17:42:53;101607.00;;;17.90
11424;BMP180;5768;51.476;7.210;2023-04-03T17:47:55;101616.00;;;17.80
11424;BMP180;5768;51.476;7.210;2023-04-03T17:52:59;101609.00;;;17.50
11424;BMP180;5768;51.476;7.210;2023-04-03T17:58:01;101604.00;;;16.90
11424;BMP180;5768;51.476;7.210;2023-04-03T18:03:04;101598.00;;;16.10
11424;BMP180;5768;51.476;7.210;2023-04-03T18:08:08;101599.00;;;15.40
11424;BMP180;5768;51.476;7.210;2023-04-03T18:13:10;101600.00;;;14.80
11424;BMP180;5768;51.476;7.210;2023-04-03T18:18:12;101600.00;;;14.30
11424;BMP180;5768;51.476;7.210;2023-04-03T18:23:17;101598.00;;;13.90
11424;BMP180;5768;51.476;7.210;2023-04-03T18:28:19;101605.00;;;13.60
11424;BMP180;5768;51.476;7.210;2023-04-03T18:33:22;101602.00;;;13.30
11424;BMP180;5768;51.476;7.210;2023-04-03T18:38:26;101604.00;;;13.00
11424;BMP180;5768;51.476;7.210;2023-04-03T18:43:29;101593.00;;;12.70
11424;BMP180;5768;51.476;7.210;2023-04-03T18:48:32;101616.00;;;12.50
11424;BMP180;5768;51.476;7.210;2023-04-03T18:53:36;101609.00;;;12.30
11424;BMP180;5768;51.476;7.210;2023-04-03T18:58:38;101613.00;;;12.00
11424;BMP180;5768;51.476;7.210;2023-04-03T19:03:40;101604.00;;;11.90
11424;BMP180;5768;51.476;7.210;2023-04-03T19:08:45;101609.00;;;11.70
11424;BMP180;5768;51.476;7.210;2023-04-03T19:13:47;101605.00;;;11.50
11424;BMP180;5768;51.476;7.210;2023-04-03T19:18:49;101614.00;;;11.30
11424;BMP180;5768;51.476;7.210;2023-04-03T19:23:56;101616.00;;;11.20
11424;BMP180;5768;51.476;7.210;2023-04-03T19:28:59;101612.00;;;11.10
11424;BMP180;5768;51.476;7.210;2023-04-03T19:34:02;101621.00;;;10.90
11424;BMP180;5768;51.476;7.210;2023-04-03T19:39:06;101619.00;;;10.80
11424;BMP180;5768;51.476;7.210;2023-04-03T19:44:08;101613.00;;;10.60
11424;BMP180;5768;51.476;7.210;2023-04-03T19:49:15;101623.00;;;10.50
11424;BMP180;5768;51.476;7.210;2023-04-03T19:54:21;101596.00;;;10.40
11424;BMP180;5768;51.476;7.210;2023-04-03T19:59:24;101600.00;;;10.20
11424;BMP180;5768;51.476;7.210;2023-04-03T20:04:27;101614.00;;;10.10
11424;BMP180;5768;51.476;7.210;2023-04-03T20:09:31;101599.00;;;10.00
11424;BMP180;5768;51.476;7.210;2023-04-03T20:14:36;101597.00;;;9.90
11424;BMP180;5768;51.476;7.210;2023-04-03T20:19:39;101609.00;;;9.80
11424;BMP180;5768;51.476;7.210;2023-04-03T20:24:44;101602.00;;;9.60
11424;BMP180;5768;51.476;7.210;2023-04-03T20:29:46;101590.00;;;9.60
11424;BMP180;5768;51.476;7.210;2023-04-03T20:34:49;101601.00;;;9.50
11424;BMP180;5768;51.476;7.210;2023-04-03T20:39:54;101583.00;;;9.40
11424;BMP180;5768;51.476;7.210;2023-04-03T20:45:00;101584.00;;;9.30
11424;BMP180;5768;51.476;7.210;2023-04-03T20:50:03;101587.00;;;9.20
11424;BMP180;5768;51.476;7.210;2023-04-03T20:55:08;101563.00;;;9.10
11424;BMP180;5768;51.476;7.210;2023-04-03T21:00:13;101562.00;;;9.00
11424;BMP180;5768;51.476;7.210;2023-04-03T21:05:18;101571.00;;;8.90
11424;BMP180;5768;51.476;7.210;2023-04-03T21:21:29;101570.00;;;8.70
11424;BMP180;5768;51.476;7.210;2023-04-03T21:26:33;101571.00;;;8.50
11424;BMP180;5768;51.476;7.210;2023-04-03T21:31:54;101583.00;;;8.50
11424;BMP180;5768;51.476;7.210;2023-04-03T21:37:03;101598.00;;;8.40
11424;BMP180;5768;51.476;7.210;2023-04-03T21:42:12;101585.00;;;8.30
11424;BMP180;5768;51.476;7.210;2023-04-03T21:47:14;101593.00;;;8.30
11424;BMP180;5768;51.476;7.210;2023-04-03T21:52:21;101572.00;;;8.20
11424;BMP180;5768;51.476;7.210;2023-04-03T21:57:24;101590.00;;;8.10
11424;BMP180;5768;51.476;7.210;2023-04-03T22:02:27;101572.00;;;8.00
11424;BMP180;5768;51.476;7.210;2023-04-03T22:07:32;101566.00;;;8.00
11424;BMP180;5768;51.476;7.210;2023-04-03T22:12:44;101563.00;;;7.90
11424;BMP180;5768;51.476;7.210;2023-04-03T22:17:46;101564.00;;;7.80
11424;BMP180;5768;51.476;7.210;2023-04-03T22:22:50;101562.00;;;7.60
11424;BMP180;5768;51.476;7.210;2023-04-03T22:27:53;101537.00;;;7.50
11424;BMP180;5768;51.476;7.210;2023-04-03T22:32:55;101540.00;;;7.50
11424;BMP180;5768;51.476;7.210;2023-04-03T22:37:59;101539.00;;;7.50
11424;BMP180;5768;51.476;7.210;2023-04-03T22:43:02;101543.00;;;7.30
11424;BMP180;5768;51.476;7.210;2023-04-03T22:48:05;101536.00;;;7.20
11424;BMP180;5768;51.476;7.210;2023-04-03T22:53:09;101528.00;;;7.10
11424;BMP180;5768;51.476;7.210;2023-04-03T22:58:11;101532.00;;;6.90
11424;BMP180;5768;51.476;7.210;2023-04-03T23:03:14;101554.00;;;6.90
11424;BMP180;5768;51.476;7.210;2023-04-03T23:08:18;101536.00;;;6.90
11424;BMP180;5768;51.476;7.210;2023-04-03T23:13:21;101556.00;;;6.90
11424;BMP180;5768;51.476;7.210;2023-04-03T23:18:27;101555.00;;;6.70
11424;BMP180;5768;51.476;7.210;2023-04-03T23:23:31;101568.00;;;6.70
11424;BMP180;5768;51.476;7.210;2023-04-03T23:28:33;101560.00;;;6.60
11424;BMP180;5768;51.476;7.210;2023-04-03T23:33:37;101544.00;;;6.50
11424;BMP180;5768;51.476;7.210;2023-04-03T23:38:48;101548.00;;;6.40
11424;BMP180;5768;51.476;7.210;2023-04-03T23:43:50;101547.00;;;6.40
11424;BMP180;5768;51.476;7.210;2023-04-03T23:48:52;101550.00;;;6.30
11424;BMP180;5768;51.476;7.210;2023-04-03T23:53:56;101537.00;;;6.30
11424;BMP180;5768;51.476;7.210;2023-04-03T23:58:59;101545.00;;;6.20
